createdAt,value
2024-05-09T00:03:49.132Z,14
2024-05-09T00:32:24.913Z,14
2024-05-09T01:00:50.469Z,16
2024-05-09T04:45:49.396Z,16
2024-05-09T05:14:41.353Z,16
2024-05-09T05:43:16.034Z,18
2024-05-09T06:11:57.633Z,19
2024-05-09T06:40:43.375Z,18
2024-05-09T07:09:39.036Z,14
2024-05-09T07:38:26.873Z,16
2024-05-09T08:06:53.314Z,17
2024-05-09T08:35:32.605Z,15
2024-05-09T09:04:12.421Z,14
2024-05-09T09:32:48.271Z,14
2024-05-09T10:01:35.532Z,13
2024-05-09T10:30:17.696Z,13
2024-05-09T10:58:31.670Z,10
2024-05-09T11:27:06.393Z,10
2024-05-09T11:55:42.192Z,8
2024-05-09T12:24:19.799Z,8
2024-05-09T12:53:05.875Z,8
2024-05-09T13:21:39.622Z,8
2024-05-09T13:50:20.557Z,8
2024-05-09T14:18:40.127Z,7
2024-05-09T14:47:17.518Z,7
2024-05-09T15:15:56.324Z,7
2024-05-09T15:44:30.971Z,8
2024-05-09T16:12:57.475Z,7
2024-05-09T16:41:31.353Z,7
2024-05-09T17:10:19.275Z,9
2024-05-09T17:38:35.399Z,14
2024-05-09T18:07:05.180Z,11
2024-05-09T18:35:31.875Z,8
2024-05-09T19:04:10.388Z,13
2024-05-09T19:32:33.236Z,10
2024-05-09T20:01:04.282Z,8
2024-05-09T20:29:25.550Z,8
2024-05-09T20:57:57.209Z,10
2024-05-09T21:26:26.105Z,10
2024-05-09T21:55:04.896Z,8
2024-05-09T22:23:43.773Z,12
2024-05-09T22:52:19.154Z,18
2024-05-09T23:20:43.233Z,11
2024-05-09T23:49:22.318Z,14
